createdAt,value
2023-02-06T00:01:02.322Z,9.25
2023-02-06T00:04:05.956Z,7.25
2023-02-06T00:07:09.154Z,8.75
2023-02-06T00:10:12.091Z,7.37
2023-02-06T00:13:15.134Z,5.65
2023-02-06T00:16:23.578Z,6.78
2023-02-06T00:19:26.692Z,4.38
2023-02-06T00:22:29.968Z,5.47
2023-02-06T00:25:34.000Z,6.43
2023-02-06T00:31:41.734Z,5.25
2023-02-06T00:34:46.556Z,4.18
2023-02-06T00:37:51.453Z,5.15
2023-02-06T00:40:54.537Z,5.57
2023-02-06T00:43:57.528Z,4.18
2023-02-06T00:47:02.047Z,3.95
2023-02-06T00:50:06.433Z,3.72
2023-02-06T00:53:09.836Z,4.35
2023-02-06T00:56:12.916Z,3.10
2023-02-06T00:59:16.305Z,3.63
2023-02-06T01:02:20.788Z,5.43
2023-02-06T01:05:24.179Z,5.75
2023-02-06T01:08:27.502Z,5.30
2023-02-06T01:11:30.711Z,8.65
2023-02-06T01:14:33.814Z,7.80
2023-02-06T01:17:39.877Z,9.80
2023-02-06T01:20:43.302Z,12.05
2023-02-06T01:23:46.926Z,10.02
2023-02-06T01:26:50.685Z,10.05
2023-02-06T01:29:55.024Z,11.20
2023-02-06T01:32:59.654Z,9.82
2023-02-06T01:36:03.463Z,9.43
2023-02-06T01:39:08.023Z,10.57
2023-02-06T01:42:13.786Z,8.27
2023-02-06T01:45:41.705Z,9.07
2023-02-06T01:48:53.153Z,9.60
2023-02-06T01:52:08.135Z,8.75
2023-02-06T01:55:11.480Z,9.90
2023-02-06T01:58:25.173Z,13.23
2023-02-06T02:01:28.549Z,10.23
2023-02-06T02:04:36.975Z,9.23
2023-02-06T02:07:49.098Z,10.10
2023-02-06T02:10:52.445Z,11.13
2023-02-06T02:13:58.569Z,9.18
2023-02-06T02:17:26.358Z,11.23
2023-02-06T02:21:18.196Z,8.90
2023-02-06T02:24:41.990Z,8.45
2023-02-06T02:28:25.953Z,10.53
2023-02-06T02:32:05.008Z,14.52
2023-02-06T02:35:28.673Z,6.10
2023-02-06T02:38:51.441Z,7.10
2023-02-06T02:42:01.337Z,5.85
2023-02-06T02:45:14.180Z,7.72
2023-02-06T02:48:23.964Z,6.38
2023-02-06T02:51:28.536Z,10.43
2023-02-06T02:54:31.551Z,8.80
2023-02-06T02:57:34.782Z,10.02
2023-02-06T03:00:44.954Z,8.03
2023-02-06T03:03:53.061Z,9.82
2023-02-06T03:07:14.472Z,8.60
2023-02-06T03:10:28.207Z,10.55
2023-02-06T03:13:38.735Z,8.57
2023-02-06T03:16:47.546Z,8.38
2023-02-06T03:19:58.131Z,9.75
2023-02-06T03:23:07.846Z,8.23
2023-02-06T03:26:16.840Z,9.52
2023-02-06T03:29:22.866Z,11.27
2023-02-06T03:32:31.049Z,9.15
2023-02-06T03:35:38.517Z,7.80
2023-02-06T03:38:43.224Z,8.88
2023-02-06T03:41:48.649Z,10.77
2023-02-06T03:45:00.461Z,10.18
2023-02-06T03:48:11.293Z,11.27
2023-02-06T03:51:22.155Z,11.50
2023-02-06T03:54:29.267Z,11.00
2023-02-06T03:57:38.144Z,12.80
2023-02-06T04:00:44.696Z,9.38
2023-02-06T04:03:48.732Z,13.77
2023-02-06T04:09:56.346Z,10.93
2023-02-06T04:12:59.989Z,14.70
2023-02-06T04:16:03.875Z,10.40
2023-02-06T04:22:13.926Z,10.63
2023-02-06T04:25:18.471Z,7.25
2023-02-06T04:28:21.771Z,9.93
2023-02-06T04:31:25.758Z,9.43
2023-02-06T04:34:29.254Z,10.93
2023-02-06T04:37:33.612Z,11.23
2023-02-06T04:40:39.143Z,12.25
2023-02-06T04:43:42.424Z,10.35
2023-02-06T04:46:45.913Z,14.17
2023-02-06T04:49:48.945Z,11.50
2023-02-06T04:52:52.333Z,12.23
2023-02-06T04:56:03.615Z,10.35
2023-02-06T04:59:06.899Z,12.40
2023-02-06T05:02:10.074Z,14.90
2023-02-06T05:05:13.351Z,11.93
2023-02-06T05:08:16.802Z,15.00
2023-02-06T05:11:21.329Z,11.18
2023-02-06T05:14:24.891Z,9.95
2023-02-06T05:17:27.851Z,9.90
2023-02-06T05:20:31.057Z,8.70
2023-02-06T05:23:34.451Z,9.67
2023-02-06T05:26:39.294Z,11.63
2023-02-06T05:29:43.049Z,7.82
2023-02-06T05:32:46.694Z,7.00
2023-02-06T05:35:50.096Z,7.00
2023-02-06T05:38:53.346Z,9.52
2023-02-06T05:41:59.089Z,10.33
2023-02-06T05:45:02.714Z,10.40
2023-02-06T05:48:07.148Z,9.83
2023-02-06T05:51:10.300Z,7.18
2023-02-06T05:54:17.015Z,6.25
2023-02-06T05:57:21.466Z,6.95
2023-02-06T06:00:24.716Z,7.78
2023-02-06T06:03:28.043Z,8.37
2023-02-06T06:06:31.097Z,9.20
2023-02-06T06:09:34.548Z,9.50
2023-02-06T06:12:39.179Z,8.35
2023-02-06T06:15:43.259Z,8.20
2023-02-06T06:18:46.437Z,9.30
2023-02-06T06:21:49.638Z,9.37
2023-02-06T06:24:53.339Z,10.83
2023-02-06T06:27:57.927Z,11.82
2023-02-06T06:31:05.085Z,8.85
2023-02-06T06:34:08.224Z,11.40
2023-02-06T06:37:11.755Z,10.77
2023-02-06T06:40:15.919Z,10.88
2023-02-06T06:43:20.760Z,11.55
2023-02-06T06:46:24.158Z,9.25
2023-02-06T06:49:29.021Z,8.32
2023-02-06T06:52:33.372Z,9.93
2023-02-06T06:58:42.188Z,10.48
2023-02-06T07:01:45.604Z,11.88
2023-02-06T07:04:48.773Z,12.43
2023-02-06T07:07:55.920Z,10.77
2023-02-06T07:11:00.417Z,12.75
2023-02-06T07:14:06.350Z,10.23
2023-02-06T07:17:09.769Z,14.02
2023-02-06T07:20:13.443Z,20.10
2023-02-06T07:23:16.784Z,8.30
2023-02-06T07:26:19.863Z,10.75
2023-02-06T07:29:24.454Z,16.40
2023-02-06T07:32:27.679Z,11.25
2023-02-06T07:35:30.789Z,8.70
2023-02-06T07:38:33.866Z,13.90
2023-02-06T07:41:37.026Z,17.08
2023-02-06T07:44:41.432Z,15.23
2023-02-06T07:47:45.343Z,11.57
2023-02-06T07:50:48.394Z,11.77
2023-02-06T07:53:51.582Z,14.13
2023-02-06T07:56:54.921Z,13.00
2023-02-06T07:59:59.283Z,9.37
2023-02-06T08:03:02.574Z,15.18
2023-02-06T08:06:10.417Z,11.33
2023-02-06T08:09:17.238Z,10.10
2023-02-06T08:12:23.188Z,11.20
2023-02-06T08:15:30.035Z,14.57
2023-02-06T08:18:33.200Z,11.55
2023-02-06T08:21:36.197Z,20.50
2023-02-06T08:24:39.335Z,9.65
2023-02-06T08:27:42.489Z,12.27
2023-02-06T08:30:47.031Z,14.37
2023-02-06T08:33:51.513Z,12.57
2023-02-06T08:36:54.632Z,39.28
2023-02-06T08:39:58.232Z,19.58
2023-02-06T08:43:01.220Z,51.20
2023-02-06T08:46:05.840Z,13.80
2023-02-06T08:49:14.028Z,27.83
2023-02-06T08:52:18.558Z,21.58
2023-02-06T08:55:25.208Z,22.67
2023-02-06T08:58:28.940Z,28.35
2023-02-06T09:01:36.663Z,46.03
2023-02-06T09:04:42.545Z,11.27
2023-02-06T09:07:45.683Z,21.48
2023-02-06T09:10:48.712Z,13.33
2023-02-06T09:13:54.957Z,7.57
2023-02-06T09:16:59.540Z,13.45
2023-02-06T09:20:03.439Z,11.30
2023-02-06T09:23:06.432Z,9.88
2023-02-06T09:26:09.596Z,11.25
2023-02-06T09:29:13.721Z,11.27
2023-02-06T09:32:18.541Z,11.10
2023-02-06T09:35:21.550Z,13.80
2023-02-06T09:38:25.377Z,10.90
2023-02-06T09:41:35.073Z,11.13
2023-02-06T09:44:48.872Z,10.40
2023-02-06T09:47:58.334Z,10.75
2023-02-06T09:51:16.353Z,11.75
2023-02-06T09:54:30.768Z,48.13
2023-02-06T09:57:46.908Z,59.33
2023-02-06T10:00:59.309Z,38.95
2023-02-06T10:04:32.509Z,19.52
2023-02-06T10:07:57.321Z,31.27
2023-02-06T10:11:04.807Z,15.70
2023-02-06T10:14:22.379Z,31.65
2023-02-06T10:17:31.293Z,19.00
2023-02-06T10:20:47.670Z,17.50
2023-02-06T10:23:59.278Z,22.15
2023-02-06T10:27:10.448Z,16.58
2023-02-06T10:30:19.168Z,43.53
2023-02-06T10:33:36.819Z,31.13
2023-02-06T10:36:56.210Z,14.43
2023-02-06T10:40:27.573Z,16.80
2023-02-06T10:43:42.195Z,24.52
2023-02-06T10:46:48.841Z,24.17
2023-02-06T10:50:01.471Z,11.75
2023-02-06T10:53:21.713Z,12.23
2023-02-06T10:56:29.829Z,9.55
2023-02-06T10:59:39.209Z,11.98
2023-02-06T11:03:01.355Z,15.55
2023-02-06T11:06:16.822Z,11.52
2023-02-06T11:09:21.504Z,11.38
2023-02-06T11:12:33.136Z,12.38
2023-02-06T11:15:43.945Z,12.25
2023-02-06T11:18:49.949Z,15.07
2023-02-06T11:21:58.516Z,10.48
2023-02-06T11:25:07.602Z,11.10
2023-02-06T11:28:23.140Z,12.93
2023-02-06T11:31:44.584Z,13.43
2023-02-06T11:34:58.568Z,12.13
2023-02-06T11:38:14.866Z,10.55
2023-02-06T11:41:20.408Z,11.90
2023-02-06T11:44:26.920Z,11.43
2023-02-06T11:47:35.067Z,12.85
2023-02-06T11:50:41.229Z,12.75
2023-02-06T11:53:58.939Z,11.75
2023-02-06T11:57:09.553Z,10.75
2023-02-06T12:00:23.696Z,13.85
2023-02-06T12:03:36.469Z,13.13
2023-02-06T12:06:42.508Z,11.30
2023-02-06T12:09:45.729Z,13.35
2023-02-06T12:12:56.600Z,14.60
2023-02-06T12:16:04.495Z,16.83
2023-02-06T12:19:17.927Z,14.45
2023-02-06T12:22:26.741Z,13.20
2023-02-06T12:25:36.243Z,12.77
2023-02-06T12:28:57.645Z,14.23
2023-02-06T12:32:09.303Z,12.10
2023-02-06T12:35:21.606Z,11.27
2023-02-06T12:38:36.424Z,11.10
2023-02-06T12:42:10.137Z,14.93
2023-02-06T12:45:34.106Z,14.07
2023-02-06T12:48:44.835Z,18.55
2023-02-06T12:51:57.145Z,14.63
2023-02-06T12:55:15.142Z,18.52
2023-02-06T12:58:28.904Z,14.23
2023-02-06T13:01:55.338Z,17.58
2023-02-06T13:05:03.916Z,16.90
2023-02-06T13:08:11.070Z,14.55
2023-02-06T13:11:27.697Z,12.57
2023-02-06T13:14:31.938Z,18.80
2023-02-06T13:17:42.428Z,14.18
2023-02-06T13:21:18.832Z,13.52
2023-02-06T13:24:22.861Z,12.93
2023-02-06T13:30:50.676Z,14.35
2023-02-06T13:34:01.630Z,14.10
2023-02-06T13:37:33.606Z,13.38
2023-02-06T13:40:37.466Z,17.42
2023-02-06T13:43:43.324Z,16.27
2023-02-06T13:47:29.371Z,11.57
2023-02-06T13:50:58.074Z,16.42
2023-02-06T13:54:48.565Z,12.00
2023-02-06T13:58:28.740Z,12.57
2023-02-06T14:01:33.677Z,13.07
2023-02-06T14:04:40.816Z,11.55
2023-02-06T14:08:16.839Z,12.40
2023-02-06T14:11:40.992Z,13.00
2023-02-06T14:15:05.773Z,15.30
2023-02-06T14:18:43.539Z,13.02
2023-02-06T14:22:04.278Z,13.93
2023-02-06T14:25:48.575Z,13.15
2023-02-06T14:29:04.462Z,13.97
2023-02-06T14:32:33.167Z,15.00
2023-02-06T14:35:54.520Z,14.52
2023-02-06T14:39:30.894Z,17.55
2023-02-06T14:42:42.220Z,12.85
2023-02-06T14:46:06.319Z,13.15
2023-02-06T14:49:18.693Z,14.38
2023-02-06T14:52:26.050Z,9.90
2023-02-06T14:55:50.073Z,12.07
2023-02-06T14:59:52.733Z,12.63
2023-02-06T15:03:33.051Z,13.38
2023-02-06T15:07:18.825Z,13.15
2023-02-06T15:11:01.041Z,13.02
2023-02-06T15:14:45.151Z,16.10
2023-02-06T15:18:22.834Z,13.88
2023-02-06T15:21:27.654Z,13.73
2023-02-06T15:25:18.844Z,19.15
2023-02-06T15:28:45.580Z,16.65
2023-02-06T15:32:35.434Z,17.17
2023-02-06T15:36:33.223Z,15.88
2023-02-06T15:40:05.486Z,19.25
2023-02-06T15:43:20.240Z,20.85
2023-02-06T15:47:06.910Z,24.97
2023-02-06T15:50:52.319Z,20.55
2023-02-06T15:54:23.299Z,22.45
2023-02-06T15:57:33.239Z,21.42
2023-02-06T16:01:36.230Z,20.17
2023-02-06T16:04:45.986Z,22.15
2023-02-06T16:07:51.275Z,22.67
2023-02-06T16:11:01.456Z,20.98
2023-02-06T16:14:04.988Z,20.30
2023-02-06T16:17:29.326Z,22.60
2023-02-06T16:20:39.981Z,23.15
2023-02-06T16:23:49.664Z,20.73
2023-02-06T16:26:53.004Z,18.10
2023-02-06T16:29:58.328Z,17.30
2023-02-06T16:33:23.079Z,19.27
2023-02-06T16:36:26.066Z,20.48
2023-02-06T16:39:30.519Z,22.25
2023-02-06T16:42:37.516Z,20.98
2023-02-06T16:45:40.799Z,20.63
2023-02-06T16:48:43.882Z,23.52
2023-02-06T16:51:50.535Z,19.55
2023-02-06T16:54:57.679Z,19.98
2023-02-06T16:58:02.778Z,20.95
2023-02-06T17:01:08.493Z,25.75
2023-02-06T17:04:11.916Z,20.13
2023-02-06T17:07:19.681Z,22.77
2023-02-06T17:10:26.744Z,24.55
2023-02-06T17:13:31.310Z,24.10
2023-02-06T17:16:34.570Z,21.67
2023-02-06T17:19:37.830Z,24.83
2023-02-06T17:22:40.934Z,25.97
2023-02-06T17:25:47.182Z,21.63
2023-02-06T17:28:51.395Z,21.67
2023-02-06T17:31:54.766Z,23.63
2023-02-06T17:35:01.731Z,24.98
2023-02-06T17:38:05.359Z,24.27
2023-02-06T17:41:10.122Z,20.35
2023-02-06T17:44:13.373Z,22.42
2023-02-06T17:47:17.182Z,21.70
2023-02-06T17:50:23.338Z,24.42
2023-02-06T17:53:26.491Z,22.60
2023-02-06T17:56:32.508Z,24.07
2023-02-06T17:59:36.501Z,23.30
2023-02-06T18:02:40.067Z,25.00
2023-02-06T18:05:44.471Z,23.63
2023-02-06T18:08:48.878Z,22.38
2023-02-06T18:11:53.221Z,23.30
2023-02-06T18:14:56.501Z,19.67
2023-02-06T18:18:00.285Z,20.67
2023-02-06T18:21:03.410Z,24.83
2023-02-06T18:24:07.846Z,18.80
2023-02-06T18:27:12.978Z,17.55
2023-02-06T18:30:17.377Z,22.55
2023-02-06T18:33:20.681Z,18.73
2023-02-06T18:36:24.576Z,17.67
2023-02-06T18:39:27.862Z,24.35
2023-02-06T18:42:49.805Z,19.63
2023-02-06T18:45:52.891Z,16.25
2023-02-06T18:48:56.307Z,18.60
2023-02-06T18:51:59.330Z,19.98
2023-02-06T18:55:02.480Z,21.48
2023-02-06T18:58:07.991Z,19.30
2023-02-06T19:01:16.441Z,16.83
2023-02-06T19:04:19.751Z,20.85
2023-02-06T19:07:22.798Z,17.17
2023-02-06T19:10:27.159Z,16.20
2023-02-06T19:13:31.586Z,16.45
2023-02-06T19:16:37.570Z,18.35
2023-02-06T19:19:40.899Z,17.10
2023-02-06T19:22:44.133Z,20.67
2023-02-06T19:25:47.272Z,19.97
2023-02-06T19:28:52.196Z,22.50
2023-02-06T19:31:55.258Z,20.05
2023-02-06T19:34:58.754Z,17.87
2023-02-06T19:38:03.424Z,23.50
2023-02-06T19:41:08.258Z,20.65
2023-02-06T19:44:14.774Z,19.73
2023-02-06T19:47:17.767Z,19.00
2023-02-06T19:50:20.953Z,19.80
2023-02-06T19:53:24.009Z,21.07
2023-02-06T19:56:32.630Z,23.02
2023-02-06T19:59:37.061Z,21.75
2023-02-06T20:02:40.390Z,17.00
2023-02-06T20:05:44.435Z,19.58
2023-02-06T20:11:51.297Z,17.95
2023-02-06T20:14:55.690Z,20.90
2023-02-06T20:17:59.707Z,18.85
2023-02-06T20:24:10.228Z,17.92
2023-02-06T20:27:14.464Z,20.35
2023-02-06T20:30:21.983Z,18.13
2023-02-06T20:33:24.959Z,19.70
2023-02-06T20:36:29.222Z,19.02
2023-02-06T20:39:32.754Z,22.15
2023-02-06T20:42:39.450Z,20.58
2023-02-06T20:45:43.877Z,24.38
2023-02-06T20:48:54.516Z,26.15
2023-02-06T20:51:57.835Z,25.92
2023-02-06T20:55:01.226Z,25.42
2023-02-06T20:58:04.325Z,27.52
2023-02-06T21:01:16.099Z,26.60
2023-02-06T21:04:20.971Z,22.40
2023-02-06T21:07:24.288Z,20.60
2023-02-06T21:10:28.294Z,20.48
2023-02-06T21:16:38.674Z,20.63
2023-02-06T21:19:42.469Z,20.33
2023-02-06T21:22:45.474Z,18.33
2023-02-06T21:25:52.803Z,18.17
2023-02-06T21:28:57.992Z,17.55
2023-02-06T21:32:13.563Z,18.20
2023-02-06T21:35:17.483Z,18.33
2023-02-06T21:38:21.069Z,18.70
2023-02-06T21:41:25.015Z,17.73
2023-02-06T21:44:28.956Z,15.38
2023-02-06T21:47:33.396Z,16.73
2023-02-06T21:50:40.188Z,15.30
2023-02-06T21:53:45.756Z,15.00
2023-02-06T21:56:48.808Z,17.58
2023-02-06T21:59:51.925Z,16.02
2023-02-06T22:02:56.313Z,13.70
2023-02-06T22:06:08.370Z,13.98
2023-02-06T22:09:16.997Z,14.63
2023-02-06T22:12:20.150Z,19.38
2023-02-06T22:15:24.098Z,21.50
2023-02-06T22:18:28.530Z,19.88
2023-02-06T22:21:33.458Z,22.45
2023-02-06T22:24:36.488Z,18.52
2023-02-06T22:27:39.974Z,19.90
2023-02-06T22:30:43.150Z,20.08
2023-02-06T22:33:47.765Z,17.27
2023-02-06T22:36:51.591Z,18.23
2023-02-06T22:39:56.491Z,16.60
2023-02-06T22:42:59.678Z,19.10
2023-02-06T22:46:03.114Z,18.73
2023-02-06T22:49:10.504Z,15.25
2023-02-06T22:52:27.555Z,17.92
2023-02-06T22:55:50.649Z,14.60
2023-02-06T22:58:54.862Z,17.88
2023-02-06T23:01:59.885Z,16.05
2023-02-06T23:05:04.465Z,15.63
2023-02-06T23:08:07.772Z,15.07
2023-02-06T23:11:12.675Z,15.30
2023-02-06T23:14:17.620Z,13.00
2023-02-06T23:17:20.718Z,16.67
2023-02-06T23:20:26.157Z,14.53
2023-02-06T23:23:29.987Z,16.20
2023-02-06T23:26:34.610Z,13.25
2023-02-06T23:29:38.240Z,18.23
2023-02-06T23:32:49.440Z,15.00
2023-02-06T23:36:05.814Z,15.52
2023-02-06T23:39:09.783Z,13.63
2023-02-06T23:42:12.730Z,14.53
2023-02-06T23:45:16.194Z,15.30
2023-02-06T23:48:19.235Z,13.40
2023-02-06T23:51:25.024Z,14.30
2023-02-06T23:54:28.062Z,12.15
2023-02-06T23:57:35.919Z,12.20
